Time;durP1;ratioP1;P1;durP2;ratioP2;P2;SDS_P1;SDS_P2;PMS_P1;PMS_P2;Temp;Humidity;BMP_temperature;BMP_pressure;BME280_temperature;BME280_humidity;BME280_pressure;Samples;Min_cycle;Max_cycle;Signal;HPM_P1;HPM_P2
2022/06/11 00:02:27;;;;;;;10.27;9.57;;;18.00;99.90;;;;;;5093434;27;20484;-77
2022/06/11 00:05:22;;;;;;;10.03;9.20;;;18.00;99.90;;;;;;5092577;28;20480;-77
2022/06/11 00:08:14;;;;;;;10.73;9.93;;;18.00;99.90;;;;;;5094039;27;20456;-79
2022/06/11 00:11:07;;;;;;;9.50;8.80;;;18.00;99.90;;;;;;5094791;27;20549;-77
2022/06/11 00:13:55;;;;;;;10.47;9.67;;;18.00;99.90;;;;;;5092442;27;20476;-77
2022/06/11 00:16:46;;;;;;;9.83;9.13;;;18.00;99.90;;;;;;5091974;27;20590;-77
2022/06/11 00:19:36;;;;;;;9.73;9.13;;;18.00;99.90;;;;;;5094002;27;20495;-77
2022/06/11 00:22:25;;;;;;;13.40;9.80;;;18.00;99.90;;;;;;5089848;28;20606;-77
2022/06/11 00:25:18;;;;;;;11.10;10.10;;;18.00;99.90;;;;;;5088321;28;20610;-77
2022/06/11 00:28:11;;;;;;;10.37;9.60;;;17.90;99.90;;;;;;5092960;28;20684;-80
2022/06/11 00:31:03;;;;;;;9.80;9.10;;;17.90;99.90;;;;;;5092032;27;20466;-77
2022/06/11 00:33:51;;;;;;;10.20;9.50;;;17.90;99.90;;;;;;5091920;28;21058;-77
2022/06/11 00:36:43;;;;;;;10.87;10.07;;;17.90;99.90;;;;;;5095768;28;20452;-77
2022/06/11 00:39:35;;;;;;;11.17;10.27;;;17.90;99.90;;;;;;5093239;27;20956;-76
2022/06/11 00:42:26;;;;;;;10.33;9.47;;;17.90;99.90;;;;;;5092304;28;20641;-78
2022/06/11 00:45:31;;;;;;;11.27;10.40;;;17.90;99.90;;;;;;5087407;28;20499;-78
2022/06/11 00:48:28;;;;;;;11.03;10.23;;;17.80;99.90;;;;;;5094546;27;20524;-77
2022/06/11 00:51:28;;;;;;;11.47;10.57;;;17.90;99.90;;;;;;5089995;27;20925;-77
2022/06/11 00:54:22;;;;;;;10.80;9.90;;;17.90;99.90;;;;;;5087671;28;20567;-77
2022/06/11 00:57:13;;;;;;;10.70;9.90;;;17.90;99.90;;;;;;5091590;27;21033;-79
2022/06/11 01:00:12;;;;;;;11.30;10.20;;;17.80;99.90;;;;;;5094865;28;21053;-78
2022/06/11 01:03:05;;;;;;;10.50;9.80;;;17.80;99.90;;;;;;5089746;28;20563;-79
2022/06/11 01:06:06;;;;;;;9.80;9.10;;;17.80;99.90;;;;;;5092617;27;20461;-77
2022/06/11 01:09:01;;;;;;;10.80;10.00;;;17.80;99.90;;;;;;5091850;28;20483;-77
2022/06/11 01:12:01;;;;;;;11.10;10.20;;;17.80;99.90;;;;;;5092449;28;20456;-78
2022/06/11 01:14:55;;;;;;;11.80;10.80;;;17.80;99.90;;;;;;5096232;27;20548;-78
2022/06/11 01:17:55;;;;;;;11.87;10.97;;;17.80;99.90;;;;;;5093772;28;20877;-77
2022/06/11 01:20:51;;;;;;;11.70;10.80;;;17.80;99.90;;;;;;5092657;27;20555;-78
2022/06/11 01:24:23;;;;;;;11.70;10.80;;;17.80;99.90;;;;;;5087095;28;20529;-81
2022/06/11 01:27:38;;;;;;;11.10;10.30;;;17.90;99.90;;;;;;5087502;27;20547;-78
2022/06/11 01:30:29;;;;;;;11.13;10.40;;;17.90;99.90;;;;;;5091561;27;20556;-78
2022/06/11 01:33:25;;;;;;;13.57;12.53;;;17.90;99.90;;;;;;5090573;28;20550;-77
2022/06/11 01:36:23;;;;;;;12.67;11.47;;;17.90;99.90;;;;;;5095199;28;20552;-77
2022/06/11 01:39:23;;;;;;;11.90;10.90;;;17.90;99.90;;;;;;5073853;28;20481;-77
2022/06/11 01:42:19;;;;;;;11.10;10.20;;;17.90;99.90;;;;;;5070307;28;20466;-77
2022/06/11 01:45:17;;;;;;;11.33;10.43;;;17.90;99.90;;;;;;5069090;28;20533;-80
2022/06/11 01:48:16;;;;;;;13.03;11.10;;;17.80;99.90;;;;;;5072020;28;20853;-76
2022/06/11 01:51:17;;;;;;;11.83;10.97;;;17.80;99.90;;;;;;5064059;28;21229;-77
2022/06/11 01:54:25;;;;;;;12.30;11.40;;;17.90;99.90;;;;;;5068376;28;20500;-78
2022/06/11 01:57:36;;;;;;;11.33;10.50;;;17.80;99.90;;;;;;5072453;28;20546;-77
2022/06/11 02:00:30;;;;;;;11.90;11.00;;;17.80;99.90;;;;;;5068858;28;20564;-78
2022/06/11 02:03:38;;;;;;;12.33;11.43;;;17.80;99.90;;;;;;5067814;28;20955;-78
2022/06/11 02:06:45;;;;;;;11.80;10.90;;;17.80;99.90;;;;;;5053327;28;22900;-79
2022/06/11 02:09:46;;;;;;;11.30;10.50;;;17.80;99.90;;;;;;5067411;28;20772;-77
2022/06/11 02:12:41;;;;;;;11.53;10.60;;;17.80;99.90;;;;;;5074404;28;20448;-80
2022/06/11 02:15:36;;;;;;;11.47;10.40;;;17.80;99.90;;;;;;5067279;28;20480;-78
2022/06/11 02:18:26;;;;;;;11.33;10.50;;;17.80;99.90;;;;;;5075317;28;20488;-77
2022/06/11 02:21:25;;;;;;;11.80;11.10;;;17.70;99.90;;;;;;5076878;28;20498;-77
2022/06/11 02:24:21;;;;;;;11.40;10.50;;;17.70;99.90;;;;;;5079057;28;20549;-79
2022/06/11 02:27:15;;;;;;;11.30;10.50;;;17.70;99.90;;;;;;5081500;28;20453;-80
2022/06/11 02:30:08;;;;;;;12.20;11.20;;;17.70;99.90;;;;;;5078408;28;20454;-77
2022/06/11 02:32:57;;;;;;;11.80;11.00;;;17.70;99.90;;;;;;5095305;28;20472;-76
2022/06/11 02:35:55;;;;;;;12.13;11.03;;;17.70;99.90;;;;;;5082644;28;20489;-80
2022/06/11 02:38:47;;;;;;;12.17;11.20;;;17.70;99.90;;;;;;5072669;28;20608;-79
2022/06/11 02:41:38;;;;;;;11.87;10.93;;;17.70;99.90;;;;;;5078681;28;20482;-78
2022/06/11 02:44:26;;;;;;;11.73;10.90;;;17.70;99.90;;;;;;5075541;28;20560;-77
2022/06/11 02:47:18;;;;;;;12.17;11.17;;;17.70;99.90;;;;;;5079956;28;20468;-81
2022/06/11 02:50:08;;;;;;;11.50;10.50;;;17.70;99.90;;;;;;5078380;28;20453;-81
2022/06/11 02:52:57;;;;;;;11.57;10.77;;;17.70;99.90;;;;;;5072049;28;20457;-77
2022/06/11 02:55:50;;;;;;;11.50;10.53;;;17.70;99.90;;;;;;5074276;28;20597;-77
2022/06/11 02:58:38;;;;;;;11.30;10.40;;;17.70;99.90;;;;;;5075740;28;20470;-77
2022/06/11 03:01:27;;;;;;;12.13;11.20;;;17.70;99.90;;;;;;5075982;28;20492;-77
2022/06/11 03:04:16;;;;;;;11.80;10.90;;;17.70;99.90;;;;;;5074091;28;20976;-78
2022/06/11 03:07:05;;;;;;;11.93;11.00;;;17.70;99.90;;;;;;5075533;28;20579;-79
2022/06/11 03:09:58;;;;;;;11.30;10.40;;;17.70;99.90;;;;;;5076441;28;20540;-77
2022/06/11 03:12:54;;;;;;;12.53;11.50;;;17.70;99.90;;;;;;5074796;28;20457;-80
2022/06/11 03:15:45;;;;;;;11.27;10.47;;;17.70;99.90;;;;;;5077205;28;20461;-78
2022/06/11 03:18:34;;;;;;;11.70;10.80;;;17.70;99.90;;;;;;5080008;28;20997;-77
2022/06/11 03:21:22;;;;;;;11.87;10.70;;;17.70;99.90;;;;;;5073392;28;21034;-78
2022/06/11 03:24:10;;;;;;;11.37;10.53;;;17.70;99.90;;;;;;5062905;28;20517;-78
2022/06/11 03:27:06;;;;;;;11.60;10.90;;;17.70;99.90;;;;;;5073222;28;20960;-78
2022/06/11 03:29:56;;;;;;;11.47;10.60;;;17.70;99.90;;;;;;5076257;28;21369;-78
2022/06/11 03:32:46;;;;;;;11.67;10.80;;;17.70;99.90;;;;;;5078087;28;20556;-81
2022/06/11 03:35:36;;;;;;;11.90;11.10;;;17.70;99.90;;;;;;5076459;28;21157;-79
2022/06/11 03:38:29;;;;;;;11.70;10.80;;;17.70;99.90;;;;;;5075404;28;20481;-81
2022/06/11 03:41:22;;;;;;;12.10;11.10;;;17.70;99.90;;;;;;5076881;28;20592;-79
2022/06/11 03:44:16;;;;;;;11.10;10.30;;;17.70;99.90;;;;;;5076186;28;20510;-77
2022/06/11 03:47:06;;;;;;;11.77;10.87;;;17.70;99.90;;;;;;5077773;28;20466;-77
2022/06/11 03:49:55;;;;;;;13.93;11.87;;;17.70;99.90;;;;;;5076913;28;20522;-77
2022/06/11 03:52:46;;;;;;;12.57;11.53;;;17.70;99.90;;;;;;5079170;28;20446;-77
2022/06/11 03:55:35;;;;;;;11.30;10.40;;;17.70;99.90;;;;;;5076131;28;20530;-77
2022/06/11 03:58:26;;;;;;;12.07;11.13;;;17.60;99.90;;;;;;5074168;28;20596;-80
2022/06/11 04:01:19;;;;;;;11.50;10.70;;;17.60;99.90;;;;;;5063793;28;20487;-77
2022/06/11 04:04:19;;;;;;;11.43;10.63;;;17.60;99.90;;;;;;5073094;28;20488;-79
2022/06/11 04:07:08;;;;;;;12.03;11.03;;;17.60;99.90;;;;;;5067538;28;20493;-77
2022/06/11 04:09:56;;;;;;;11.63;10.83;;;17.60;99.90;;;;;;5073145;28;20557;-77
2022/06/11 04:12:44;;;;;;;11.40;10.70;;;17.50;99.90;;;;;;5077980;28;20536;-79
2022/06/11 04:15:33;;;;;;;11.93;10.90;;;17.60;99.90;;;;;;5073647;28;20565;-77
2022/06/11 04:18:31;;;;;;;11.40;10.60;;;17.50;99.90;;;;;;5073277;28;20575;-76
2022/06/11 04:21:21;;;;;;;12.70;11.60;;;17.50;99.90;;;;;;5073946;28;21313;-77
2022/06/11 04:24:12;;;;;;;9.97;9.30;;;17.50;99.90;;;;;;5070026;28;20485;-80
2022/06/11 04:27:04;;;;;;;11.37;10.53;;;17.60;99.90;;;;;;5074871;28;20619;-79
2022/06/11 04:29:56;;;;;;;11.37;10.47;;;17.60;99.90;;;;;;5076522;28;20457;-77
2022/06/11 04:32:55;;;;;;;11.57;10.70;;;17.60;99.90;;;;;;5074213;28;20499;-77
2022/06/11 04:35:44;;;;;;;10.50;9.57;;;17.60;99.90;;;;;;5067775;28;20587;-77
2022/06/11 04:38:34;;;;;;;10.50;9.60;;;17.70;99.90;;;;;;5075022;28;20475;-77
2022/06/11 04:41:23;;;;;;;10.23;9.33;;;17.70;99.90;;;;;;5071847;28;20549;-77
2022/06/11 04:44:11;;;;;;;8.60;8.00;;;17.80;99.90;;;;;;5073566;28;21034;-80
2022/06/11 04:47:05;;;;;;;8.80;8.00;;;17.90;99.90;;;;;;5065961;28;20482;-78
2022/06/11 04:49:58;;;;;;;9.63;8.83;;;17.90;99.90;;;;;;5073844;28;20535;-77
2022/06/11 04:52:52;;;;;;;8.63;8.03;;;18.00;99.90;;;;;;5075407;28;20449;-77
2022/06/11 04:55:42;;;;;;;8.37;7.77;;;18.00;99.90;;;;;;5071248;28;20485;-77
2022/06/11 04:58:33;;;;;;;8.37;7.70;;;18.00;99.90;;;;;;5076004;28;20617;-81
2022/06/11 05:01:25;;;;;;;8.87;8.13;;;18.10;99.90;;;;;;5074931;28;20504;-78
2022/06/11 05:04:16;;;;;;;8.50;7.77;;;18.10;99.90;;;;;;5072536;28;20607;-77
2022/06/11 05:07:16;;;;;;;7.80;7.20;;;18.20;99.90;;;;;;5073912;28;20828;-77
2022/06/11 05:10:05;;;;;;;8.13;7.43;;;18.20;99.90;;;;;;5073814;28;20465;-77
2022/06/11 05:12:58;;;;;;;9.17;8.37;;;18.20;99.90;;;;;;5077316;28;20634;-79
2022/06/11 05:15:58;;;;;;;8.80;8.10;;;18.30;99.90;;;;;;5077895;28;20479;-78
2022/06/11 05:18:49;;;;;;;8.10;7.50;;;18.30;99.90;;;;;;5078930;28;20849;-77
2022/06/11 05:21:41;;;;;;;8.90;8.20;;;18.40;99.90;;;;;;5076525;28;20930;-76
2022/06/11 05:24:32;;;;;;;8.60;7.90;;;18.40;99.90;;;;;;5070467;28;20493;-77
2022/06/11 05:27:25;;;;;;;8.73;8.00;;;18.40;99.90;;;;;;5071031;28;20564;-77
2022/06/11 05:30:21;;;;;;;9.23;8.33;;;18.50;99.90;;;;;;5076067;28;20485;-78
2022/06/11 05:33:10;;;;;;;8.90;8.10;;;18.50;99.90;;;;;;5068988;28;20456;-80
2022/06/11 05:36:01;;;;;;;9.50;8.60;;;18.50;99.90;;;;;;5064332;28;20477;-78
2022/06/11 05:38:49;;;;;;;9.30;8.40;;;18.60;99.90;;;;;;5070431;28;20604;-77
2022/06/11 05:42:02;;;;;;;9.40;8.60;;;18.50;99.90;;;;;;5070426;28;20947;-78
2022/06/11 05:44:59;;;;;;;8.80;8.10;;;18.60;99.90;;;;;;5067459;28;20491;-81
2022/06/11 05:47:51;;;;;;;10.77;9.73;;;18.60;99.90;;;;;;5063202;28;20556;-79
2022/06/11 05:50:49;;;;;;;11.63;10.43;;;18.70;99.90;;;;;;5065669;28;20548;-79
2022/06/11 05:53:51;;;;;;;11.60;10.33;;;18.70;99.90;;;;;;5069092;28;20473;-77
2022/06/11 05:56:43;;;;;;;11.30;9.47;;;18.70;99.90;;;;;;5062712;28;20596;-76
2022/06/11 05:59:35;;;;;;;10.30;9.50;;;18.80;99.90;;;;;;5053756;28;20477;-79
2022/06/11 06:02:25;;;;;;;10.97;10.13;;;18.80;99.90;;;;;;5055376;28;20461;-78
2022/06/11 06:05:28;;;;;;;10.73;9.87;;;18.80;99.90;;;;;;5072739;28;20485;-77
2022/06/11 06:08:16;;;;;;;11.10;10.17;;;18.90;99.90;;;;;;5050169;28;20807;-79
2022/06/11 06:11:09;;;;;;;11.73;10.73;;;19.00;99.90;;;;;;5062332;28;20551;-80
2022/06/11 06:14:00;;;;;;;12.70;11.50;;;19.00;99.90;;;;;;5061436;28;20469;-77
2022/06/11 06:16:48;;;;;;;12.17;11.03;;;19.00;99.90;;;;;;5058992;28;20457;-78
2022/06/11 06:19:37;;;;;;;11.63;10.50;;;19.10;99.90;;;;;;5071304;28;20501;-80
2022/06/11 06:22:26;;;;;;;9.90;9.20;;;19.10;99.90;;;;;;5061018;28;20554;-77
2022/06/11 06:25:17;;;;;;;12.67;11.57;;;19.10;99.90;;;;;;5059729;28;20948;-82
2022/06/11 06:28:06;;;;;;;13.57;12.30;;;19.10;99.90;;;;;;5064019;28;20499;-77
2022/06/11 06:30:58;;;;;;;14.40;13.10;;;19.20;99.90;;;;;;5050263;28;20485;-77
2022/06/11 06:33:47;;;;;;;12.57;11.47;;;19.20;99.90;;;;;;5064407;28;20477;-78
2022/06/11 06:36:36;;;;;;;12.50;11.30;;;19.20;99.90;;;;;;5062279;28;20937;-77
2022/06/11 06:39:25;;;;;;;12.63;11.50;;;19.30;99.90;;;;;;5063976;28;20473;-82
2022/06/11 06:42:13;;;;;;;14.07;12.93;;;19.30;99.90;;;;;;5066233;28;20979;-77
2022/06/11 06:45:02;;;;;;;13.47;12.33;;;19.50;99.90;;;;;;5067243;28;20550;-77
2022/06/11 06:47:50;;;;;;;14.20;12.80;;;19.50;99.90;;;;;;5072177;28;20468;-77
2022/06/11 06:50:38;;;;;;;12.67;11.37;;;19.50;99.90;;;;;;5068978;28;20523;-78
2022/06/11 06:53:27;;;;;;;13.57;12.37;;;19.60;99.90;;;;;;5063451;28;20936;-82
2022/06/11 06:56:17;;;;;;;12.40;11.50;;;19.60;99.90;;;;;;5063760;28;20841;-80
2022/06/11 06:59:06;;;;;;;11.70;10.70;;;19.60;99.90;;;;;;5066110;28;20532;-82
2022/06/11 07:01:54;;;;;;;9.60;8.83;;;19.70;99.90;;;;;;5066207;28;20454;-77
2022/06/11 07:04:42;;;;;;;8.70;7.80;;;19.80;99.90;;;;;;5072603;28;20480;-79
2022/06/11 07:07:33;;;;;;;8.43;7.80;;;19.80;99.90;;;;;;5065526;28;20485;-80
2022/06/11 07:10:23;;;;;;;9.07;8.17;;;19.80;99.90;;;;;;5068528;28;20448;-80
2022/06/11 07:13:13;;;;;;;9.20;7.97;;;19.90;99.90;;;;;;5072130;28;20455;-78
2022/06/11 07:16:04;;;;;;;8.27;7.13;;;19.90;99.90;;;;;;5065301;28;20511;-80
2022/06/11 07:18:57;;;;;;;8.57;7.87;;;20.00;99.90;;;;;;5076295;28;21048;-80
2022/06/11 07:21:50;;;;;;;8.07;7.30;;;20.00;99.90;;;;;;5074430;28;20540;-80
2022/06/11 07:24:42;;;;;;;7.97;7.17;;;20.00;99.90;;;;;;5071610;28;21110;-81
2022/06/11 07:27:34;;;;;;;7.70;6.90;;;20.00;99.90;;;;;;5076016;28;21052;-80
2022/06/11 07:30:27;;;;;;;8.07;6.70;;;20.00;99.90;;;;;;5073562;28;20458;-80
2022/06/11 07:33:21;;;;;;;7.03;6.10;;;20.10;99.90;;;;;;5071036;28;20595;-80
2022/06/11 07:36:10;;;;;;;7.60;6.90;;;20.20;99.90;;;;;;5071956;28;20551;-81
2022/06/11 07:38:58;;;;;;;7.60;6.80;;;20.20;99.90;;;;;;5072814;28;21366;-81
2022/06/11 07:41:46;;;;;;;8.07;7.27;;;20.20;99.90;;;;;;5062929;28;20979;-82
2022/06/11 07:44:35;;;;;;;7.30;6.60;;;20.20;99.90;;;;;;5077403;28;20466;-79
2022/06/11 07:50:30;;;;;;;7.40;6.70;;;20.10;99.90;;;;;;5077767;28;20655;-80
2022/06/11 07:53:22;;;;;;;7.80;7.00;;;20.20;99.90;;;;;;5073706;28;20487;-80
2022/06/11 07:56:10;;;;;;;10.80;7.50;;;20.20;99.90;;;;;;5079364;28;20478;-82
2022/06/11 07:58:58;;;;;;;9.67;7.30;;;20.30;99.90;;;;;;5076162;28;20556;-79
2022/06/11 08:01:46;;;;;;;6.90;6.40;;;20.30;99.90;;;;;;5094906;28;20462;-80
2022/06/11 08:04:36;;;;;;;6.87;6.13;;;20.50;99.90;;;;;;5068546;28;20465;-80
2022/06/11 08:07:25;;;;;;;8.53;7.77;;;20.60;99.90;;;;;;5068229;28;20553;-80
2022/06/11 08:10:14;;;;;;;10.83;8.13;;;20.60;99.90;;;;;;5066739;28;21476;-79
2022/06/11 08:13:03;;;;;;;9.37;8.37;;;20.60;99.90;;;;;;5068680;28;20508;-79
2022/06/11 08:15:53;;;;;;;9.70;8.90;;;20.60;99.90;;;;;;5066004;28;21428;-79
2022/06/11 08:18:42;;;;;;;9.40;8.60;;;20.70;99.90;;;;;;5062157;28;20603;-79
2022/06/11 08:21:32;;;;;;;8.90;8.10;;;20.70;99.90;;;;;;5065603;28;20917;-79
2022/06/11 08:24:20;;;;;;;9.20;8.50;;;20.80;99.90;;;;;;5063465;28;20626;-79
2022/06/11 08:27:08;;;;;;;7.80;7.30;;;20.90;99.90;;;;;;5061605;28;20457;-79
2022/06/11 08:29:57;;;;;;;8.93;8.20;;;20.80;99.90;;;;;;5066083;28;20477;-79
2022/06/11 08:32:45;;;;;;;9.03;8.20;;;20.80;99.90;;;;;;5070894;28;21270;-79
2022/06/11 08:35:35;;;;;;;8.27;7.63;;;20.80;99.90;;;;;;5068157;28;20530;-79
2022/06/11 08:38:24;;;;;;;9.37;7.67;;;20.80;99.90;;;;;;5063288;28;20706;-79
2022/06/11 08:41:16;;;;;;;7.93;7.00;;;20.90;99.90;;;;;;5065952;28;20710;-79
2022/06/11 08:44:11;;;;;;;8.77;8.10;;;21.00;99.90;;;;;;5059666;28;20477;-79
2022/06/11 08:47:05;;;;;;;7.00;6.50;;;21.10;99.90;;;;;;5059138;28;20572;-79
2022/06/11 08:49:57;;;;;;;9.37;8.50;;;21.10;99.90;;;;;;5064796;28;22401;-80
2022/06/11 08:52:47;;;;;;;8.00;7.10;;;21.20;99.90;;;;;;5053072;28;20945;-78
2022/06/11 08:55:39;;;;;;;7.80;7.10;;;21.30;99.90;;;;;;5064515;28;20600;-79
2022/06/11 08:58:40;;;;;;;7.97;7.40;;;21.30;99.90;;;;;;5059543;28;20470;-78
2022/06/11 09:01:43;;;;;;;6.87;6.37;;;21.30;99.90;;;;;;5059920;28;20590;-78
2022/06/11 09:04:55;;;;;;;5.90;5.00;;;21.50;99.90;;;;;;5054170;28;20612;-78
2022/06/11 09:07:56;;;;;;;5.10;4.80;;;21.50;99.90;;;;;;5062007;28;21130;-77
2022/06/11 09:11:10;;;;;;;5.20;4.80;;;21.50;99.90;;;;;;5058425;28;20543;-78
2022/06/11 09:14:15;;;;;;;6.53;5.90;;;21.50;99.90;;;;;;5063376;28;20551;-79
2022/06/11 09:17:40;;;;;;;6.90;6.40;;;21.50;99.90;;;;;;5061227;28;20595;-76
2022/06/11 09:20:37;;;;;;;7.10;6.50;;;21.60;99.90;;;;;;5051034;28;20456;-77
2022/06/11 09:23:52;;;;;;;9.10;8.50;;;21.70;99.90;;;;;;5058388;28;20590;-77
2022/06/11 09:26:46;;;;;;;7.80;7.10;;;21.60;99.90;;;;;;5054185;28;20610;-76
2022/06/11 09:29:44;;;;;;;9.00;6.20;;;21.50;99.90;;;;;;5053471;28;21057;-77
2022/06/11 09:32:41;;;;;;;6.57;6.07;;;21.40;99.90;;;;;;5050821;28;20465;-81
2022/06/11 09:35:38;;;;;;;7.03;6.43;;;21.50;99.90;;;;;;5057169;28;20995;-76
2022/06/11 09:38:34;;;;;;;7.43;6.93;;;21.60;99.90;;;;;;5058166;28;21036;-77
2022/06/11 09:41:30;;;;;;;7.10;6.60;;;21.70;99.90;;;;;;5062383;28;20816;-75
2022/06/11 09:44:38;;;;;;;7.20;6.70;;;21.70;99.90;;;;;;5060554;28;20619;-77
2022/06/11 09:47:34;;;;;;;6.17;5.77;;;21.80;99.90;;;;;;5058790;28;20549;-75
2022/06/11 09:50:29;;;;;;;5.80;5.40;;;21.80;99.90;;;;;;5052127;28;20875;-76
2022/06/11 09:53:30;;;;;;;6.03;5.53;;;21.90;99.90;;;;;;5062106;28;20454;-77
2022/06/11 09:56:29;;;;;;;5.17;4.77;;;21.90;99.90;;;;;;5053739;28;20646;-78
2022/06/11 09:59:30;;;;;;;4.63;4.17;;;22.00;99.90;;;;;;5051914;28;20493;-79
2022/06/11 10:02:28;;;;;;;4.00;3.70;;;22.00;99.90;;;;;;5050284;28;20445;-78
2022/06/11 10:05:38;;;;;;;4.93;4.07;;;22.00;99.90;;;;;;5051737;28;20468;-76
2022/06/11 10:08:36;;;;;;;6.30;3.10;;;22.00;99.90;;;;;;5059034;28;20473;-76
2022/06/11 10:11:29;;;;;;;3.40;3.10;;;22.00;99.90;;;;;;5055483;28;20446;-78
2022/06/11 10:14:30;;;;;;;4.23;3.27;;;22.00;99.90;;;;;;5056212;28;20518;-76
2022/06/11 10:17:23;;;;;;;4.23;3.20;;;22.00;99.90;;;;;;5053328;28;21046;-76
2022/06/11 10:20:18;;;;;;;3.83;3.50;;;22.00;99.90;;;;;;5053785;28;20487;-76
2022/06/11 10:23:15;;;;;;;4.47;3.60;;;22.10;99.90;;;;;;5056738;28;20595;-79
2022/06/11 10:26:09;;;;;;;4.00;3.70;;;22.20;99.90;;;;;;5068054;28;20531;-78
2022/06/11 10:29:06;;;;;;;5.07;3.83;;;22.20;99.90;;;;;;5058298;28;20557;-77
2022/06/11 10:31:59;;;;;;;4.37;3.70;;;22.20;99.90;;;;;;5051823;28;20465;-78
2022/06/11 10:34:58;;;;;;;3.17;2.97;;;22.10;99.90;;;;;;5063849;28;20484;-77
2022/06/11 10:37:53;;;;;;;3.17;2.90;;;22.10;99.90;;;;;;5064753;28;20491;-77
2022/06/11 10:40:45;;;;;;;3.23;2.60;;;22.00;99.90;;;;;;5073738;28;20804;-76
2022/06/11 10:43:41;;;;;;;3.53;3.20;;;22.10;99.90;;;;;;5067297;28;20453;-78
2022/06/11 10:46:30;;;;;;;4.50;2.97;;;22.10;99.90;;;;;;5080562;28;20492;-75
2022/06/11 10:49:22;;;;;;;3.17;2.87;;;22.20;99.90;;;;;;5075015;28;20512;-78
2022/06/11 10:52:36;;;;;;;6.60;2.97;;;22.20;99.90;;;;;;5063166;28;20570;-76
2022/06/11 10:55:34;;;;;;;5.03;3.17;;;22.20;99.90;;;;;;5060095;28;20567;-77
2022/06/11 11:21:56;;;;;;;8.50;4.27;;;22.40;99.90;;;;;;5073118;27;20602;-74
2022/06/11 11:24:49;;;;;;;6.33;3.87;;;22.60;99.90;;;;;;5052224;28;20509;-71
2022/06/11 11:27:44;;;;;;;5.60;3.90;;;22.50;99.90;;;;;;5056525;28;20922;-71
2022/06/11 11:30:35;;;;;;;7.13;4.20;;;22.50;99.90;;;;;;5046570;28;20461;-70
2022/06/11 11:33:26;;;;;;;6.70;3.87;;;22.60;99.90;;;;;;5051756;28;20512;-70
2022/06/11 11:36:20;;;;;;;5.57;3.60;;;22.80;99.90;;;;;;5063659;28;20454;-69
2022/06/11 11:39:29;;;;;;;6.50;3.97;;;22.80;99.90;;;;;;5053158;28;20454;-70
2022/06/11 11:42:22;;;;;;;6.80;4.10;;;22.90;99.90;;;;;;5052767;28;20496;-70
2022/06/11 11:45:22;;;;;;;4.90;3.63;;;22.90;99.90;;;;;;5061802;28;20468;-69
2022/06/11 11:48:19;;;;;;;5.87;4.00;;;22.80;99.90;;;;;;5060075;28;20592;-71
2022/06/11 11:51:11;;;;;;;6.80;3.60;;;22.90;99.90;;;;;;5060616;28;20627;-71
2022/06/11 11:54:02;;;;;;;5.60;3.30;;;23.00;99.90;;;;;;5046312;28;21048;-71
2022/06/11 11:56:59;;;;;;;5.93;3.40;;;23.00;99.90;;;;;;5077745;28;20456;-71
2022/06/11 11:59:53;;;;;;;4.23;2.87;;;23.20;99.90;;;;;;5080848;28;20464;-71
2022/06/11 12:02:46;;;;;;;5.03;3.70;;;23.40;99.90;;;;;;5084973;28;20464;-70
2022/06/11 12:05:39;;;;;;;6.40;3.47;;;23.50;99.90;;;;;;5079970;28;20514;-69
2022/06/11 12:08:32;;;;;;;4.47;3.30;;;23.60;99.90;;;;;;5083652;28;20452;-70
2022/06/11 12:11:33;;;;;;;5.40;3.30;;;23.70;99.90;;;;;;5088836;28;20495;-70
2022/06/11 12:14:33;;;;;;;5.00;3.57;;;23.80;99.90;;;;;;5084557;28;20479;-72
2022/06/11 12:17:27;;;;;;;5.53;3.63;;;23.90;99.90;;;;;;5082933;28;20452;-69
2022/06/11 12:20:26;;;;;;;5.77;3.80;;;24.00;99.90;;;;;;5081802;28;20894;-71
2022/06/11 12:23:25;;;;;;;5.20;3.23;;;24.00;99.90;;;;;;5065778;28;20572;-69
2022/06/11 12:26:18;;;;;;;6.80;3.80;;;24.00;99.90;;;;;;5064449;28;20622;-69
2022/06/11 12:29:14;;;;;;;9.43;3.80;;;24.00;99.90;;;;;;5065176;28;20485;-70
2022/06/11 12:32:18;;;;;;;6.63;3.20;;;23.90;99.90;;;;;;5072438;28;20475;-69
2022/06/11 12:35:16;;;;;;;4.77;3.30;;;23.70;99.90;;;;;;5068242;28;20477;-70
2022/06/11 12:38:12;;;;;;;20.13;6.70;;;23.70;99.90;;;;;;5072853;28;20490;-70
2022/06/11 12:41:21;;;;;;;40.93;19.70;;;23.80;99.90;;;;;;5076482;28;20492;-69
2022/06/11 12:44:43;;;;;;;12.10;5.57;;;23.90;99.90;;;;;;5071379;28;20967;-69
2022/06/11 12:47:56;;;;;;;6.50;3.60;;;24.10;99.90;;;;;;5062037;28;20460;-70
2022/06/11 12:51:11;;;;;;;7.47;3.60;;;24.20;99.90;;;;;;5051353;28;20469;-70
2022/06/11 12:54:02;;;;;;;4.53;3.50;;;24.40;99.90;;;;;;5071904;28;20857;-69
2022/06/11 12:57:12;;;;;;;6.80;3.53;;;24.60;99.90;;;;;;5069672;28;20456;-70
2022/06/11 13:00:11;;;;;;;9.80;4.70;;;24.70;99.90;;;;;;5075305;28;20783;-70
2022/06/11 13:03:19;;;;;;;7.67;4.13;;;24.70;99.90;;;;;;5071648;28;20509;-69
2022/06/11 13:06:27;;;;;;;7.00;3.77;;;24.60;99.90;;;;;;5076695;28;20595;-69
2022/06/11 13:09:33;;;;;;;6.90;3.73;;;24.50;99.90;;;;;;5070310;28;20460;-70
2022/06/11 13:12:39;;;;;;;8.43;3.90;;;24.50;99.90;;;;;;5073564;28;20480;-71
2022/06/11 13:15:42;;;;;;;6.77;3.30;;;24.60;99.90;;;;;;5063556;28;20533;-70
2022/06/11 13:19:12;;;;;;;7.60;4.10;;;24.70;99.90;;;;;;5070386;28;20972;-70
2022/06/11 13:22:08;;;;;;;10.87;4.20;;;24.80;99.90;;;;;;5053443;28;20500;-70
2022/06/11 13:25:07;;;;;;;6.70;3.50;;;24.80;99.90;;;;;;5074663;28;20550;-69
2022/06/11 13:28:06;;;;;;;8.60;4.27;;;24.90;99.90;;;;;;5064637;28;20545;-71
2022/06/11 13:31:05;;;;;;;9.43;4.20;;;25.10;99.90;;;;;;5072312;28;20480;-68
2022/06/11 13:34:17;;;;;;;7.07;3.53;;;25.10;99.90;;;;;;5071776;28;20513;-70
2022/06/11 13:37:27;;;;;;;6.43;3.70;;;25.20;99.90;;;;;;5068319;28;20888;-70
2022/06/11 13:40:24;;;;;;;7.27;3.43;;;25.20;99.90;;;;;;5062676;28;20561;-69
2022/06/11 13:43:30;;;;;;;4.70;3.20;;;25.00;99.90;;;;;;5070780;28;20533;-69
2022/06/11 13:46:34;;;;;;;4.57;2.70;;;24.90;99.90;;;;;;5069973;28;22306;-70
2022/06/11 13:49:36;;;;;;;8.53;4.03;;;24.90;99.90;;;;;;5070315;28;20452;-69
2022/06/11 13:55:35;;;;;;;6.63;2.83;;;25.00;99.90;;;;;;5071815;28;20592;-69
2022/06/11 13:58:35;;;;;;;7.23;3.60;;;25.00;99.90;;;;;;5060711;28;20470;-70
2022/06/11 14:01:40;;;;;;;6.40;3.77;;;24.90;99.90;;;;;;5062426;28;20457;-69
2022/06/11 14:04:39;;;;;;;7.27;3.30;;;24.90;99.90;;;;;;5054328;28;20479;-70
2022/06/11 14:07:30;;;;;;;6.77;3.73;;;24.80;99.90;;;;;;5061376;28;20505;-69
2022/06/11 14:10:41;;;;;;;5.43;3.00;;;24.80;99.90;;;;;;5062632;28;20560;-70
2022/06/11 14:13:57;;;;;;;5.50;3.70;;;24.90;99.90;;;;;;5067323;28;21410;-69
2022/06/11 14:16:46;;;;;;;6.90;3.60;;;24.90;99.90;;;;;;5054654;28;20445;-71
2022/06/11 14:19:41;;;;;;;8.33;3.50;;;24.90;99.90;;;;;;5065060;28;20495;-71
2022/06/11 14:22:46;;;;;;;5.53;3.30;;;24.90;99.90;;;;;;5069134;28;20497;-70
2022/06/11 14:25:43;;;;;;;5.47;3.00;;;25.00;99.90;;;;;;5062399;28;20480;-70
2022/06/11 14:28:47;;;;;;;5.93;3.33;;;25.10;99.90;;;;;;5063923;28;21783;-70
2022/06/11 14:31:51;;;;;;;8.50;3.37;;;25.10;99.90;;;;;;5062704;28;20527;-68
2022/06/11 14:34:58;;;;;;;6.80;3.63;;;25.10;99.90;;;;;;5056502;28;20491;-70
2022/06/11 14:37:47;;;;;;;6.20;3.43;;;25.00;99.90;;;;;;5064374;28;20559;-69
2022/06/11 14:40:35;;;;;;;7.37;3.70;;;25.10;99.90;;;;;;5066542;28;20568;-70
2022/06/11 14:43:24;;;;;;;10.47;3.73;;;25.20;99.90;;;;;;5072115;28;20579;-70
2022/06/11 14:46:50;;;;;;;6.20;3.13;;;25.30;99.90;;;;;;5054114;28;20456;-70
2022/06/11 14:49:53;;;;;;;10.00;3.37;;;25.40;99.90;;;;;;5060204;28;20560;-70
2022/06/11 14:52:53;;;;;;;5.37;3.60;;;25.30;99.90;;;;;;5067940;28;20689;-69
2022/06/11 14:55:44;;;;;;;8.70;3.40;;;25.20;99.90;;;;;;5071416;28;20472;-70
2022/06/11 14:58:49;;;;;;;6.37;3.57;;;25.40;99.90;;;;;;5066074;28;20533;-70
2022/06/11 15:01:58;;;;;;;6.70;3.77;;;25.50;99.90;;;;;;5053373;28;20472;-69
2022/06/11 15:05:06;;;;;;;7.40;3.50;;;25.50;99.90;;;;;;5070351;28;20549;-69
2022/06/11 15:08:05;;;;;;;7.77;4.43;;;25.60;99.90;;;;;;5060873;28;20552;-70
2022/06/11 15:11:02;;;;;;;6.27;3.53;;;25.80;99.90;;;;;;5062031;28;22205;-70
2022/06/11 15:14:14;;;;;;;8.37;3.43;;;26.00;99.90;;;;;;5064678;28;20700;-69
2022/06/11 15:17:19;;;;;;;6.73;3.57;;;26.10;99.90;;;;;;5060331;28;20441;-69
2022/06/11 15:20:23;;;;;;;6.63;3.30;;;26.20;99.90;;;;;;5065288;28;20464;-69
2022/06/11 15:23:17;;;;;;;6.17;3.30;;;26.10;99.90;;;;;;5072269;28;20492;-70
2022/06/11 15:26:14;;;;;;;7.30;3.30;;;26.10;99.90;;;;;;5066163;28;20479;-70
2022/06/11 15:29:14;;;;;;;10.27;4.00;;;25.90;99.90;;;;;;5071229;28;20560;-70
2022/06/11 15:32:07;;;;;;;11.00;3.63;;;25.80;99.90;;;;;;5076221;28;20635;-70
2022/06/11 15:34:57;;;;;;;9.37;3.70;;;25.70;99.90;;;;;;5069556;28;20481;-70
2022/06/11 15:37:50;;;;;;;7.00;3.73;;;25.70;99.90;;;;;;5070893;28;20453;-70